Hovedside
METAR-TAF:

METAR-TAF

Lufthavner :

Pullman-Moscow Regional Airport

Pullman / Moscow, Washington, USA

breddegrad: 46-44-38N, lengdegrad: 117-06-35W, høyde over havet: 779 m

Gjeldene værobservasjon

Denne rapporten ble laget for 26 minutter siden, klokken 17:53 UTC
Vind 3 kt fra Sørøst
Temperatur 14°C
Luftfuktighet 33%
Trykk 1021 hPa
Sikt: 16.1 km
Skyfri himmel

METAR: KPUW 091753Z AUTO 14003KT 10SM CLR 14/M02 A3014 RMK AO2 SLP210 T01391017 10139 20022 58007

Tid: 11:19 (18:19 UTC)

Varsel

Denne rapporten ble laget for 59 minutter siden, klokken 17:20 UTC
Varsel gyldig fra 09. klokken 18 UTC til 10. klokken 18 UTC
Vind 4 kt fra skiftende retning
Sikt: 10 km
Spredte skyer i en høyde av 25000 ft
Fra 10. klokken 1600 UTC
Vind 10 kt fra Sør
Sikt: 10 km
Få skyer i en høyde av 15000 ft
Brutte skyer i en høyde av 20000 ft

TAF: KPUW 091720Z 0918/1018 VRB04KT P6SM SCT250 FM101600 19010KT P6SM FEW150 BKN200

Værobservasjoner og værvarsel for over 4000 flyplasser (METAR- og TAF-rapporter).

Tilgjengelige stasjoner er representert av de røde og gule prikkene på kartet.

Hold musepekeren over prikken for å se navnet på stasjonen.

Klikk så for å se værobservasjoner og -varsler.

For å forandre kartet kan du klikke på den grønne knappen med svart kryss for å zoome inn, på den grønne knappen med strek for å zoome ut, eller på de grønne pilene for å se tilstøtende kart.


METAR-TAF: